Time;durP1;ratioP1;P1;durP2;ratioP2;P2;SDS_P1;SDS_P2;PMS_P1;PMS_P2;Temp;Humidity;BMP_temperature;BMP_pressure;BME280_temperature;BME280_humidity;BME280_pressure;Samples;Min_cycle;Max_cycle;Signal;HPM_P1;HPM_P2
2022/04/05 00:00:41;;;;;;;8.35;3.70;;;;;;;;;;5071531;28;20394;-77
2022/04/05 00:03:07;;;;;;;7.72;3.60;;;;;;;;;;5071409;28;20039;-77
2022/04/05 00:05:33;;;;;;;6.25;3.28;;;;;;;;;;5073125;28;20017;-77
2022/04/05 00:07:59;;;;;;;7.68;3.15;;;;;;;;;;5075550;28;20028;-76
2022/04/05 00:10:26;;;;;;;6.93;2.80;;;;;;;;;;5075539;28;20021;-77
2022/04/05 00:12:52;;;;;;;8.88;3.45;;;;;;;;;;5075437;28;20029;-77
2022/04/05 00:15:18;;;;;;;7.28;2.95;;;;;;;;;;5075472;28;20580;-77
2022/04/05 00:17:44;;;;;;;9.07;3.30;;;;;;;;;;5075430;28;20033;-77
2022/04/05 00:20:11;;;;;;;8.43;3.70;;;;;;;;;;5075310;28;20040;-77
2022/04/05 00:22:37;;;;;;;11.10;4.40;;;;;;;;;;5074978;28;20039;-77
2022/04/05 00:25:03;;;;;;;9.10;3.70;;;;;;;;;;5075039;28;20028;-77
2022/04/05 00:27:29;;;;;;;13.02;4.38;;;;;;;;;;5075246;28;20024;-77
2022/04/05 00:29:55;;;;;;;14.50;4.60;;;;;;;;;;5075094;28;20033;-77
2022/04/05 00:32:21;;;;;;;12.85;4.72;;;;;;;;;;5075230;28;20031;-77
2022/04/05 00:34:48;;;;;;;14.70;5.40;;;;;;;;;;5075207;28;20028;-77
2022/04/05 00:37:14;;;;;;;13.23;4.25;;;;;;;;;;5074991;28;20033;-77
2022/04/05 00:39:40;;;;;;;12.60;5.25;;;;;;;;;;5075127;28;20035;-76
2022/04/05 00:42:09;;;;;;;13.63;4.97;;;;;;;;;;5074786;28;20048;-77
2022/04/05 00:44:35;;;;;;;10.25;4.28;;;;;;;;;;5074903;28;20029;-77
2022/04/05 00:47:11;;;;;;;9.93;4.00;;;;;;;;;;5075008;28;20435;-77
2022/04/05 00:49:37;;;;;;;11.10;4.43;;;;;;;;;;5074824;28;20024;-77
2022/04/05 00:52:03;;;;;;;10.32;4.80;;;;;;;;;;5074786;28;20024;-77
2022/04/05 00:54:29;;;;;;;11.25;4.97;;;;;;;;;;5074806;28;20033;-77
2022/04/05 00:56:56;;;;;;;10.95;5.10;;;;;;;;;;5056340;28;20048;-77
2022/04/05 00:59:24;;;;;;;12.75;4.82;;;;;;;;;;5074612;28;20115;-77
2022/04/05 01:01:50;;;;;;;8.77;4.13;;;;;;;;;;5074767;28;20483;-77
2022/04/05 01:04:16;;;;;;;11.48;4.75;;;;;;;;;;5074563;28;20490;-77
2022/04/05 01:06:44;;;;;;;8.27;4.28;;;;;;;;;;5074575;28;20100;-77
2022/04/05 01:09:11;;;;;;;12.35;5.22;;;;;;;;;;5074556;28;20036;-77
2022/04/05 01:11:37;;;;;;;9.38;3.80;;;;;;;;;;5074404;28;20107;-77
2022/04/05 01:14:04;;;;;;;7.13;4.05;;;;;;;;;;5074226;28;20032;-77
2022/04/05 01:16:31;;;;;;;9.65;3.95;;;;;;;;;;5073639;28;20021;-77
2022/04/05 01:18:57;;;;;;;10.77;3.60;;;;;;;;;;5074284;28;20025;-77
2022/04/05 01:21:23;;;;;;;10.10;4.07;;;;;;;;;;5074411;28;20036;-77
2022/04/05 01:24:08;;;;;;;9.05;4.00;;;;;;;;;;5056380;28;20385;-77
2022/04/05 01:26:48;;;;;;;9.55;3.80;;;;;;;;;;5074261;28;20403;-77
2022/04/05 01:29:14;;;;;;;8.93;3.88;;;;;;;;;;5074261;28;20040;-77
2022/04/05 01:31:45;;;;;;;7.28;3.53;;;;;;;;;;5056315;28;20039;-77
2022/04/05 01:34:12;;;;;;;11.88;4.22;;;;;;;;;;5074173;28;20021;-77
2022/04/05 01:36:41;;;;;;;11.70;3.90;;;;;;;;;;5074040;28;20496;-77
2022/04/05 01:39:09;;;;;;;15.45;3.88;;;;;;;;;;5074240;28;20086;-76
2022/04/05 01:41:35;;;;;;;12.63;3.75;;;;;;;;;;5073899;28;20052;-78
2022/04/05 01:44:01;;;;;;;8.60;3.30;;;;;;;;;;5074094;28;20108;-77
2022/04/05 01:46:27;;;;;;;6.70;2.97;;;;;;;;;;5074017;28;20092;-77
2022/04/05 01:48:53;;;;;;;8.30;3.28;;;;;;;;;;5073878;28;20489;-77
2022/04/05 01:51:19;;;;;;;9.55;3.40;;;;;;;;;;5073856;28;20040;-77
2022/04/05 01:53:45;;;;;;;7.03;3.05;;;;;;;;;;5073919;28;20055;-77
2022/04/05 01:56:11;;;;;;;10.63;3.88;;;;;;;;;;5073604;28;20492;-77
2022/04/05 01:58:37;;;;;;;6.72;2.58;;;;;;;;;;5073876;28;20049;-77
2022/04/05 02:01:03;;;;;;;10.82;3.58;;;;;;;;;;5073798;28;20408;-77
2022/04/05 02:03:30;;;;;;;7.97;3.20;;;;;;;;;;5073668;28;20024;-77
2022/04/05 02:05:56;;;;;;;11.35;3.85;;;;;;;;;;5073632;28;20088;-77
2022/04/05 02:08:22;;;;;;;12.35;4.28;;;;;;;;;;5073596;28;20021;-76
2022/04/05 02:10:49;;;;;;;6.97;3.22;;;;;;;;;;5073226;28;20030;-77
2022/04/05 02:13:15;;;;;;;10.50;4.15;;;;;;;;;;5073347;28;20102;-77
2022/04/05 02:15:41;;;;;;;10.82;4.00;;;;;;;;;;5073316;28;20153;-77
2022/04/05 02:18:07;;;;;;;11.23;3.22;;;;;;;;;;5074177;28;20077;-77
2022/04/05 02:20:33;;;;;;;8.57;3.90;;;;;;;;;;5073592;28;20029;-77
2022/04/05 02:23:00;;;;;;;9.38;3.97;;;;;;;;;;5073412;28;20032;-77
2022/04/05 02:25:26;;;;;;;11.18;3.42;;;;;;;;;;5055421;28;20021;-77
2022/04/05 02:27:52;;;;;;;9.55;3.60;;;;;;;;;;5073301;28;20103;-77
2022/04/05 02:30:18;;;;;;;11.10;3.92;;;;;;;;;;5073113;28;20017;-77
2022/04/05 02:32:45;;;;;;;10.48;3.65;;;;;;;;;;5055226;28;20062;-76
2022/04/05 02:35:11;;;;;;;11.82;3.80;;;;;;;;;;5072827;28;20036;-77
2022/04/05 02:37:37;;;;;;;12.20;4.07;;;;;;;;;;5072935;28;20031;-77
2022/04/05 02:40:04;;;;;;;11.15;3.90;;;;;;;;;;5072945;28;20022;-77
2022/04/05 02:42:30;;;;;;;12.65;4.97;;;;;;;;;;5072579;28;20021;-77
2022/04/05 02:44:56;;;;;;;14.80;4.38;;;;;;;;;;5072748;28;20021;-77
2022/04/05 02:47:22;;;;;;;12.52;4.35;;;;;;;;;;5072686;28;20033;-77
2022/04/05 02:49:49;;;;;;;13.70;5.07;;;;;;;;;;5072741;28;20492;-76
2022/04/05 02:52:15;;;;;;;10.68;4.20;;;;;;;;;;5072579;28;20020;-77
2022/04/05 02:54:42;;;;;;;13.18;4.65;;;;;;;;;;5072666;28;20025;-77
2022/04/05 02:57:08;;;;;;;14.15;6.20;;;;;;;;;;5054256;28;20468;-77
2022/04/05 02:59:34;;;;;;;12.00;5.13;;;;;;;;;;5072617;28;20444;-77
2022/04/05 03:02:00;;;;;;;16.10;5.93;;;;;;;;;;5072611;28;20515;-77
2022/04/05 03:04:26;;;;;;;16.10;5.00;;;;;;;;;;5072485;28;20033;-77
2022/04/05 03:06:52;;;;;;;13.07;5.28;;;;;;;;;;5072346;28;20466;-77
2022/04/05 03:09:18;;;;;;;11.30;5.18;;;;;;;;;;5072405;28;20017;-77
2022/04/05 03:11:44;;;;;;;17.52;5.20;;;;;;;;;;5072264;28;20016;-77
2022/04/05 03:14:10;;;;;;;14.13;4.93;;;;;;;;;;5053988;28;20398;-77
2022/04/05 03:16:37;;;;;;;10.43;5.22;;;;;;;;;;5072366;28;20025;-77
2022/04/05 03:19:05;;;;;;;13.23;4.70;;;;;;;;;;5072149;28;20016;-77
2022/04/05 03:21:32;;;;;;;8.73;4.20;;;;;;;;;;5072229;28;20024;-77
2022/04/05 03:23:58;;;;;;;14.68;4.35;;;;;;;;;;5072151;28;20036;-77
2022/04/05 03:26:24;;;;;;;9.68;4.03;;;;;;;;;;5072038;28;20025;-77
2022/04/05 03:28:50;;;;;;;11.82;4.22;;;;;;;;;;5072143;28;20103;-77
2022/04/05 03:31:17;;;;;;;8.43;4.43;;;;;;;;;;5071989;28;20095;-77
2022/04/05 03:33:44;;;;;;;7.10;4.43;;;;;;;;;;5072006;28;20020;-77
2022/04/05 03:36:10;;;;;;;8.27;4.30;;;;;;;;;;5053922;28;20111;-77
2022/04/05 03:38:36;;;;;;;8.75;4.50;;;;;;;;;;5072088;28;20024;-77
2022/04/05 03:41:02;;;;;;;10.50;4.68;;;;;;;;;;5071232;28;20031;-77
2022/04/05 03:43:28;;;;;;;13.10;3.75;;;;;;;;;;5071962;28;20032;-77
2022/04/05 03:45:54;;;;;;;8.52;4.57;;;;;;;;;;5071916;28;20078;-77
2022/04/05 03:48:20;;;;;;;9.10;4.38;;;;;;;;;;5071931;28;20017;-77
2022/04/05 03:50:46;;;;;;;11.63;4.60;;;;;;;;;;5071806;28;20027;-77
2022/04/05 03:53:12;;;;;;;11.75;5.32;;;;;;;;;;5071943;28;20484;-77
2022/04/05 03:55:39;;;;;;;10.05;4.72;;;;;;;;;;5071717;28;20040;-77
2022/04/05 03:58:05;;;;;;;14.32;5.65;;;;;;;;;;5071485;28;20055;-77
2022/04/05 04:00:31;;;;;;;18.35;5.93;;;;;;;;;;5053299;28;20033;-77
2022/04/05 04:02:57;;;;;;;10.85;5.35;;;;;;;;;;5071487;28;20032;-77
2022/04/05 04:05:25;;;;;;;16.45;6.35;;;;;;;;;;5071458;28;20032;-77
2022/04/05 04:07:51;;;;;;;17.58;6.82;;;;;;;;;;5071426;28;20051;-77
2022/04/05 04:10:17;;;;;;;19.85;7.97;;;;;;;;;;5071366;28;20501;-77
2022/04/05 04:12:43;;;;;;;16.60;8.18;;;;;;;;;;5071231;28;20025;-77
2022/04/05 04:15:10;;;;;;;22.52;10.07;;;;;;;;;;5071178;28;20063;-76
2022/04/05 04:17:36;;;;;;;24.17;8.93;;;;;;;;;;5071286;28;20024;-77
2022/04/05 04:20:03;;;;;;;19.33;9.68;;;;;;;;;;5071225;28;20024;-77
2022/04/05 04:22:29;;;;;;;26.67;9.75;;;;;;;;;;5071270;28;20066;-77
2022/04/05 04:24:57;;;;;;;24.98;10.13;;;;;;;;;;5070988;28;20024;-77
2022/04/05 04:27:23;;;;;;;25.25;11.65;;;;;;;;;;5071095;28;20021;-77
2022/04/05 04:29:49;;;;;;;30.08;11.27;;;;;;;;;;5071080;28;20098;-78
2022/04/05 04:32:15;;;;;;;34.75;11.48;;;;;;;;;;5071313;28;20020;-77
2022/04/05 04:34:41;;;;;;;30.40;11.18;;;;;;;;;;5071138;28;20063;-77
2022/04/05 04:37:08;;;;;;;32.33;11.55;;;;;;;;;;5071059;28;20052;-77
2022/04/05 04:39:34;;;;;;;41.08;12.85;;;;;;;;;;5071336;28;20447;-77
2022/04/05 04:42:00;;;;;;;40.08;13.40;;;;;;;;;;5071029;28;20476;-77
2022/04/05 04:44:26;;;;;;;37.10;11.93;;;;;;;;;;5071115;28;20097;-77
2022/04/05 04:46:52;;;;;;;40.78;13.20;;;;;;;;;;5071259;28;20032;-77
2022/04/05 04:49:18;;;;;;;41.95;13.23;;;;;;;;;;5071061;28;20025;-77
2022/04/05 04:51:45;;;;;;;41.17;12.60;;;;;;;;;;5071185;28;20028;-77
2022/04/05 04:54:11;;;;;;;43.63;12.55;;;;;;;;;;5074748;28;20028;-77
2022/04/05 04:56:37;;;;;;;52.40;14.40;;;;;;;;;;5074540;28;20032;-77
2022/04/05 04:59:03;;;;;;;43.83;12.55;;;;;;;;;;5074508;28;20083;-77
2022/04/05 05:01:29;;;;;;;56.17;14.63;;;;;;;;;;5074778;28;20064;-77
2022/04/05 05:03:55;;;;;;;60.92;15.27;;;;;;;;;;5074655;28;20064;-77
2022/04/05 05:06:21;;;;;;;68.05;16.35;;;;;;;;;;5074600;28;20432;-77
2022/04/05 05:08:47;;;;;;;77.38;17.67;;;;;;;;;;5074588;28;20446;-77
2022/04/05 05:11:13;;;;;;;76.30;17.45;;;;;;;;;;5074189;28;20025;-77
2022/04/05 05:13:39;;;;;;;92.22;19.63;;;;;;;;;;5074361;28;20066;-77
2022/04/05 05:16:05;;;;;;;72.07;18.38;;;;;;;;;;5074258;28;20482;-77
2022/04/05 05:18:31;;;;;;;61.55;17.30;;;;;;;;;;5074433;28;20033;-77
2022/04/05 05:20:57;;;;;;;95.85;20.50;;;;;;;;;;5074233;28;20040;-77
2022/04/05 05:23:23;;;;;;;69.97;18.50;;;;;;;;;;5074200;28;20072;-77
2022/04/05 05:25:49;;;;;;;81.18;19.15;;;;;;;;;;5073996;28;20048;-77
2022/04/05 05:28:15;;;;;;;85.75;19.38;;;;;;;;;;5074151;28;20104;-77
2022/04/05 05:30:41;;;;;;;95.90;20.80;;;;;;;;;;5074094;28;20048;-77
2022/04/05 05:33:07;;;;;;;69.80;17.63;;;;;;;;;;5074096;28;20086;-77
2022/04/05 05:35:33;;;;;;;71.55;19.55;;;;;;;;;;5073896;28;20035;-77
2022/04/05 05:38:00;;;;;;;73.88;19.00;;;;;;;;;;5074126;28;20078;-77
2022/04/05 05:40:26;;;;;;;83.75;20.23;;;;;;;;;;5073769;28;20462;-77
2022/04/05 05:42:52;;;;;;;68.03;18.42;;;;;;;;;;5054020;28;20037;-77
2022/04/05 05:45:19;;;;;;;59.85;17.58;;;;;;;;;;5054115;28;20029;-77
2022/04/05 05:47:45;;;;;;;64.60;17.23;;;;;;;;;;5053833;28;20018;-77
2022/04/05 05:50:12;;;;;;;63.00;18.85;;;;;;;;;;5053906;28;20029;-77
2022/04/05 05:52:39;;;;;;;46.72;16.85;;;;;;;;;;5053893;28;20029;-76
2022/04/05 05:55:07;;;;;;;50.78;16.95;;;;;;;;;;5035831;28;20021;-77
2022/04/05 05:57:33;;;;;;;56.75;17.73;;;;;;;;;;5035546;28;20490;-77
2022/04/05 05:59:59;;;;;;;55.63;18.95;;;;;;;;;;5053749;28;20032;-77
2022/04/05 06:02:26;;;;;;;50.65;16.73;;;;;;;;;;5053696;28;20482;-77
2022/04/05 06:04:52;;;;;;;54.30;17.83;;;;;;;;;;5053483;28;20025;-77
2022/04/05 06:07:18;;;;;;;46.95;19.13;;;;;;;;;;5053576;28;20418;-77
2022/04/05 06:09:44;;;;;;;45.10;17.95;;;;;;;;;;5035489;28;20032;-77
2022/04/05 06:12:10;;;;;;;40.70;17.30;;;;;;;;;;5053316;28;20139;-77
2022/04/05 06:14:36;;;;;;;34.22;16.88;;;;;;;;;;5068495;28;20060;-77
2022/04/05 06:17:02;;;;;;;37.47;17.15;;;;;;;;;;5073586;28;20028;-77
2022/04/05 06:19:28;;;;;;;28.17;14.07;;;;;;;;;;5073350;28;20023;-77
2022/04/05 06:21:54;;;;;;;34.30;16.20;;;;;;;;;;5073369;28;20036;-77
2022/04/05 06:24:20;;;;;;;31.60;15.23;;;;;;;;;;5073390;28;20034;-77
2022/04/05 06:26:46;;;;;;;31.35;14.95;;;;;;;;;;5073146;28;20544;-77
2022/04/05 06:29:12;;;;;;;26.67;13.70;;;;;;;;;;5073122;28;20034;-77
2022/04/05 06:31:38;;;;;;;29.77;15.35;;;;;;;;;;5055070;28;20021;-77
2022/04/05 06:34:04;;;;;;;32.17;13.20;;;;;;;;;;5073157;28;20020;-77
2022/04/05 06:36:30;;;;;;;35.88;18.08;;;;;;;;;;5073006;28;20020;-77
2022/04/05 06:38:56;;;;;;;25.23;13.25;;;;;;;;;;5054989;28;20410;-77
2022/04/05 06:41:22;;;;;;;24.80;13.55;;;;;;;;;;5065535;28;20379;-77
2022/04/05 06:43:48;;;;;;;28.23;13.60;;;;;;;;;;5053039;28;20234;-77
2022/04/05 06:46:15;;;;;;;32.75;14.75;;;;;;;;;;5053012;28;20017;-77
2022/04/05 06:48:41;;;;;;;26.60;13.02;;;;;;;;;;5052939;28;20513;-76
2022/04/05 06:51:07;;;;;;;26.50;12.80;;;;;;;;;;5052753;28;20128;-77
2022/04/05 06:53:33;;;;;;;29.42;11.85;;;;;;;;;;5052888;28;20025;-77
2022/04/05 06:56:00;;;;;;;26.13;12.95;;;;;;;;;;5052497;28;20029;-76
2022/04/05 06:58:26;;;;;;;23.35;10.68;;;;;;;;;;5052474;28;20053;-76
2022/04/05 07:00:52;;;;;;;26.67;11.85;;;;;;;;;;5052622;28;20025;-77
2022/04/05 07:03:18;;;;;;;26.30;11.07;;;;;;;;;;5052676;28;20036;-77
2022/04/05 07:05:44;;;;;;;20.80;10.85;;;;;;;;;;5052345;28;20025;-77
2022/04/05 07:08:10;;;;;;;21.35;11.05;;;;;;;;;;5052586;28;20017;-77
2022/04/05 07:10:37;;;;;;;27.73;9.93;;;;;;;;;;5052555;28;20096;-77
2022/04/05 07:13:04;;;;;;;21.58;10.00;;;;;;;;;;5054808;28;20074;-77
2022/04/05 07:15:30;;;;;;;22.92;10.02;;;;;;;;;;5071683;28;20107;-77
2022/04/05 07:17:56;;;;;;;21.23;10.15;;;;;;;;;;5072458;28;20033;-77
2022/04/05 07:20:22;;;;;;;21.77;9.05;;;;;;;;;;5072075;28;20025;-77
2022/04/05 07:22:48;;;;;;;24.13;9.77;;;;;;;;;;5072091;28;20024;-77
2022/04/05 07:25:15;;;;;;;17.05;8.45;;;;;;;;;;5072078;28;20135;-77
2022/04/05 07:27:41;;;;;;;16.67;8.35;;;;;;;;;;5072006;28;20025;-77
2022/04/05 07:30:07;;;;;;;20.48;9.70;;;;;;;;;;5071831;28;20025;-77
2022/04/05 07:32:37;;;;;;;20.98;9.07;;;;;;;;;;5072086;28;20161;-77
2022/04/05 07:35:03;;;;;;;22.05;8.77;;;;;;;;;;5071981;28;20432;-77
2022/04/05 07:37:30;;;;;;;26.88;10.02;;;;;;;;;;5071889;28;20107;-77
2022/04/05 07:39:58;;;;;;;25.98;9.70;;;;;;;;;;5071877;28;20775;-77
2022/04/05 07:42:24;;;;;;;21.27;9.55;;;;;;;;;;5053662;28;20116;-77
2022/04/05 07:44:50;;;;;;;21.33;9.45;;;;;;;;;;5071882;28;20047;-77
2022/04/05 07:47:17;;;;;;;24.85;9.90;;;;;;;;;;5072022;28;20025;-77
2022/04/05 07:49:43;;;;;;;24.85;8.32;;;;;;;;;;5071691;28;20017;-77
2022/04/05 07:52:09;;;;;;;18.20;8.70;;;;;;;;;;5071856;28;20058;-77
2022/04/05 07:54:35;;;;;;;22.65;8.77;;;;;;;;;;5071907;28;20078;-77
2022/04/05 07:57:02;;;;;;;23.52;8.40;;;;;;;;;;5053631;28;20074;-77
2022/04/05 07:59:28;;;;;;;14.27;7.60;;;;;;;;;;5071654;28;20475;-77
2022/04/05 08:01:55;;;;;;;13.98;7.25;;;;;;;;;;5053657;28;20069;-77
2022/04/05 08:04:21;;;;;;;22.25;7.45;;;;;;;;;;5071715;28;20133;-77
2022/04/05 08:06:47;;;;;;;19.15;7.38;;;;;;;;;;5071791;28;20475;-77
2022/04/05 08:09:13;;;;;;;17.70;7.97;;;;;;;;;;5071613;28;20463;-77
2022/04/05 08:11:39;;;;;;;14.82;7.68;;;;;;;;;;5071656;28;20073;-77
2022/04/05 08:14:05;;;;;;;21.33;6.53;;;;;;;;;;5072357;28;20056;-76
2022/04/05 08:16:31;;;;;;;19.88;7.82;;;;;;;;;;5072212;28;20024;-77
2022/04/05 08:18:57;;;;;;;15.25;7.65;;;;;;;;;;5071750;28;20025;-76
2022/04/05 08:21:23;;;;;;;21.80;8.15;;;;;;;;;;5071901;28;20495;-77
2022/04/05 08:23:52;;;;;;;16.58;7.97;;;;;;;;;;5071861;28;20379;-77
2022/04/05 08:26:18;;;;;;;15.95;7.25;;;;;;;;;;5072605;28;20036;-77
2022/04/05 08:28:44;;;;;;;16.85;7.13;;;;;;;;;;5075546;28;20028;-77
2022/04/05 08:31:10;;;;;;;19.55;8.43;;;;;;;;;;5075455;28;20055;-77
2022/04/05 08:33:36;;;;;;;15.10;7.03;;;;;;;;;;5075523;28;20036;-77
2022/04/05 08:36:03;;;;;;;18.20;7.00;;;;;;;;;;5074965;28;20035;-77
2022/04/05 08:38:29;;;;;;;20.48;7.28;;;;;;;;;;5075341;28;20036;-77
2022/04/05 08:40:56;;;;;;;18.67;7.18;;;;;;;;;;5075035;28;20028;-77
2022/04/05 08:43:24;;;;;;;16.83;6.57;;;;;;;;;;5075178;28;20102;-77
2022/04/05 08:45:55;;;;;;;14.38;6.88;;;;;;;;;;5075137;28;20486;-77
2022/04/05 08:48:26;;;;;;;13.70;5.80;;;;;;;;;;5075052;28;20032;-77
2022/04/05 08:50:52;;;;;;;17.60;5.95;;;;;;;;;;5074899;28;20493;-77
2022/04/05 08:53:19;;;;;;;18.33;6.63;;;;;;;;;;5075110;28;20024;-77
2022/04/05 08:55:46;;;;;;;18.17;6.28;;;;;;;;;;5075083;28;20107;-77
2022/04/05 08:58:16;;;;;;;12.38;6.13;;;;;;;;;;5074800;28;20048;-76
2022/04/05 09:00:43;;;;;;;8.85;5.13;;;;;;;;;;5074797;28;20390;-77
2022/04/05 09:03:09;;;;;;;13.98;5.30;;;;;;;;;;5056861;28;20472;-77
2022/04/05 09:05:36;;;;;;;8.52;5.20;;;;;;;;;;5074659;28;20475;-77
2022/04/05 09:08:14;;;;;;;10.77;5.53;;;;;;;;;;5074662;28;20032;-77
2022/04/05 09:10:41;;;;;;;13.80;5.07;;;;;;;;;;5074603;28;20028;-77
2022/04/05 09:13:09;;;;;;;10.98;6.03;;;;;;;;;;5056531;28;20389;-77
2022/04/05 09:15:35;;;;;;;14.05;6.65;;;;;;;;;;5074688;28;20032;-77
2022/04/05 09:18:01;;;;;;;27.52;8.57;;;;;;;;;;5056509;28;20032;-77
2022/04/05 09:20:27;;;;;;;16.38;7.40;;;;;;;;;;5074459;28;20032;-77
2022/04/05 09:22:54;;;;;;;15.30;6.45;;;;;;;;;;5074515;28;20443;-77
2022/04/05 09:25:20;;;;;;;15.75;6.95;;;;;;;;;;5074318;28;20055;-77
2022/04/05 09:27:54;;;;;;;14.82;7.80;;;;;;;;;;5074341;28;20020;-77
2022/04/05 09:30:22;;;;;;;14.50;6.38;;;;;;;;;;5074317;28;20120;-77
2022/04/05 09:32:48;;;;;;;12.95;5.75;;;;;;;;;;5074227;28;20487;-77
2022/04/05 09:35:18;;;;;;;11.25;5.60;;;;;;;;;;5056033;28;20032;-77
2022/04/05 09:37:45;;;;;;;10.55;5.60;;;;;;;;;;5073284;28;20478;-77
2022/04/05 09:40:32;;;;;;;15.25;6.97;;;;;;;;;;5074202;28;20117;-77
2022/04/05 09:43:01;;;;;;;12.90;6.68;;;;;;;;;;5054046;28;20475;-77
2022/04/05 09:45:43;;;;;;;12.43;5.55;;;;;;;;;;5054113;28;20029;-77
2022/04/05 09:48:09;;;;;;;13.95;7.00;;;;;;;;;;5054068;28;20067;-77
2022/04/05 09:50:54;;;;;;;9.48;5.28;;;;;;;;;;5053813;28;20036;-77
2022/04/05 09:53:20;;;;;;;13.32;5.82;;;;;;;;;;5053982;28;20040;-77
2022/04/05 09:55:46;;;;;;;12.10;5.80;;;;;;;;;;5053686;28;20036;-77
2022/04/05 09:58:12;;;;;;;12.85;5.80;;;;;;;;;;5053729;28;20041;-77
2022/04/05 10:00:38;;;;;;;8.35;5.20;;;;;;;;;;5053757;28;20029;-77
2022/04/05 10:03:06;;;;;;;14.13;6.63;;;;;;;;;;5035674;28;20024;-77
2022/04/05 10:05:33;;;;;;;12.52;7.10;;;;;;;;;;5053793;28;20025;-77
2022/04/05 10:07:59;;;;;;;12.40;6.55;;;;;;;;;;5053768;28;20029;-77
2022/04/05 10:10:26;;;;;;;11.15;5.45;;;;;;;;;;5053566;28;20100;-77
2022/04/05 10:12:52;;;;;;;12.45;6.18;;;;;;;;;;5035927;28;20025;-77
2022/04/05 10:15:21;;;;;;;11.57;6.35;;;;;;;;;;5073416;28;20048;-77
2022/04/05 10:17:47;;;;;;;13.48;6.45;;;;;;;;;;5073488;28;20028;-77
2022/04/05 10:20:13;;;;;;;8.48;5.93;;;;;;;;;;5073310;28;20024;-77
2022/04/05 10:22:43;;;;;;;9.65;6.28;;;;;;;;;;5073348;28;20037;-78
2022/04/05 10:25:09;;;;;;;12.35;7.07;;;;;;;;;;5073064;28;20036;-77
2022/04/05 10:27:36;;;;;;;12.18;5.93;;;;;;;;;;5073230;28;20052;-77
2022/04/05 10:30:08;;;;;;;12.35;6.55;;;;;;;;;;5054972;28;20111;-77
2022/04/05 10:32:34;;;;;;;;;;;;;;;;;;5073621;28;20103;-77
2022/04/05 10:35:05;;;;;;;12.07;6.32;;;;;;;;;;5073015;28;19944;-77
2022/04/05 10:37:35;;;;;;;19.52;7.35;;;;;;;;;;5072924;28;20131;-76
2022/04/05 10:40:01;;;;;;;12.50;5.97;;;;;;;;;;5072984;28;20050;-77
2022/04/05 10:42:44;;;;;;;11.38;6.47;;;;;;;;;;5056301;28;20021;-77
2022/04/05 10:45:10;;;;;;;12.23;7.10;;;;;;;;;;5052877;28;20035;-77
2022/04/05 10:47:55;;;;;;;12.23;6.57;;;;;;;;;;5052938;28;20031;-77
2022/04/05 10:50:21;;;;;;;11.77;5.35;;;;;;;;;;5051625;28;20436;-77
2022/04/05 10:52:48;;;;;;;11.73;5.28;;;;;;;;;;5052801;28;20040;-77
2022/04/05 10:55:20;;;;;;;9.93;5.28;;;;;;;;;;5052614;28;20055;-77
2022/04/05 10:57:46;;;;;;;8.73;5.70;;;;;;;;;;5052271;28;20119;-77
2022/04/05 11:00:14;;;;;;;14.65;5.18;;;;;;;;;;5052674;28;20263;-77
2022/04/05 11:02:44;;;;;;;11.32;5.25;;;;;;;;;;5052510;28;20029;-77
2022/04/05 11:05:13;;;;;;;10.50;4.68;;;;;;;;;;5052425;28;20029;-77
2022/04/05 11:07:52;;;;;;;14.40;5.40;;;;;;;;;;5052206;28;20044;-77
2022/04/05 11:10:21;;;;;;;11.43;5.53;;;;;;;;;;5052346;28;20386;-77
2022/04/05 11:12:48;;;;;;;10.10;5.00;;;;;;;;;;5034440;28;20539;-77
2022/04/05 11:15:17;;;;;;;9.13;5.47;;;;;;;;;;5072033;28;20029;-76
2022/04/05 11:17:43;;;;;;;12.10;4.90;;;;;;;;;;5072224;28;20054;-77
2022/04/05 11:20:10;;;;;;;10.00;4.80;;;;;;;;;;5072057;28;20028;-77
2022/04/05 11:22:37;;;;;;;9.05;5.40;;;;;;;;;;5071826;28;20412;-77
2022/04/05 11:25:04;;;;;;;10.98;4.85;;;;;;;;;;5071891;28;20028;-77
2022/04/05 11:27:32;;;;;;;12.45;4.82;;;;;;;;;;5071817;28;20443;-77
2022/04/05 11:30:17;;;;;;;10.40;4.40;;;;;;;;;;5071871;28;20046;-77
2022/04/05 11:33:06;;;;;;;12.10;4.60;;;;;;;;;;5071950;28;20103;-77
2022/04/05 11:35:34;;;;;;;11.05;4.78;;;;;;;;;;4990150;28;20482;-77
2022/04/05 11:38:01;;;;;;;6.95;4.43;;;;;;;;;;4990203;28;20049;-77
2022/04/05 11:40:29;;;;;;;9.10;4.10;;;;;;;;;;4990177;28;20042;-77
2022/04/05 11:42:56;;;;;;;10.05;4.40;;;;;;;;;;4970795;28;20078;-77
2022/04/05 11:45:22;;;;;;;14.25;4.70;;;;;;;;;;4970749;28;20038;-77
2022/04/05 11:47:54;;;;;;;7.55;4.15;;;;;;;;;;4970817;28;20388;-77
2022/04/05 11:50:20;;;;;;;;;;;;;;;;;;4970999;28;20106;-77
2022/04/05 11:52:46;;;;;;;11.68;4.68;;;;;;;;;;4970652;28;19993;-77
2022/04/05 11:58:03;;;;;;;12.80;4.88;;;;;;;;;;4970637;28;20073;-77
2022/04/05 12:00:30;;;;;;;8.80;3.97;;;;;;;;;;4970193;28;20051;-78
2022/04/05 12:03:02;;;;;;;10.05;4.95;;;;;;;;;;4970527;28;20114;-77
2022/04/05 12:05:41;;;;;;;12.27;4.78;;;;;;;;;;4970710;28;20437;-77
2022/04/05 12:08:09;;;;;;;8.20;4.28;;;;;;;;;;4970440;28;20062;-78
2022/04/05 12:10:35;;;;;;;11.02;4.32;;;;;;;;;;4970528;28;20150;-76
2022/04/05 12:13:01;;;;;;;6.95;4.20;;;;;;;;;;5018212;28;20379;-77
2022/04/05 12:15:28;;;;;;;8.00;4.38;;;;;;;;;;5071488;28;20029;-78
2022/04/05 12:18:13;;;;;;;10.32;4.80;;;;;;;;;;5053280;28;20541;-77
2022/04/05 12:20:39;;;;;;;8.70;4.88;;;;;;;;;;5071180;28;20016;-77
2022/04/05 12:23:18;;;;;;;10.57;4.57;;;;;;;;;;5071379;28;20079;-77
2022/04/05 12:26:01;;;;;;;11.60;5.10;;;;;;;;;;5071097;28;20017;-77
2022/04/05 12:28:27;;;;;;;9.80;5.55;;;;;;;;;;5071505;28;20367;-77
2022/04/05 12:30:53;;;;;;;12.15;5.30;;;;;;;;;;5071189;28;20458;-77
2022/04/05 12:33:25;;;;;;;11.95;5.57;;;;;;;;;;5071400;28;20028;-77
2022/04/05 12:35:51;;;;;;;13.75;6.07;;;;;;;;;;5071172;28;20830;-77
2022/04/05 12:38:17;;;;;;;12.48;5.45;;;;;;;;;;5053254;28;20033;-77
2022/04/05 12:40:43;;;;;;;9.23;4.93;;;;;;;;;;5070927;28;20016;-77
2022/04/05 12:43:22;;;;;;;12.98;5.05;;;;;;;;;;5071089;28;20078;-77
2022/04/05 12:45:48;;;;;;;8.80;4.63;;;;;;;;;;5071285;28;20334;-77
2022/04/05 12:48:14;;;;;;;8.15;4.50;;;;;;;;;;5071288;28;20074;-77
2022/04/05 12:50:42;;;;;;;9.07;4.78;;;;;;;;;;5070736;28;20036;-77
2022/04/05 12:53:08;;;;;;;12.25;5.00;;;;;;;;;;5071290;28;20031;-77
2022/04/05 12:55:35;;;;;;;7.82;4.60;;;;;;;;;;5070968;28;20017;-77
2022/04/05 12:58:01;;;;;;;6.53;4.63;;;;;;;;;;5052804;28;20049;-77
2022/04/05 13:00:33;;;;;;;10.63;5.43;;;;;;;;;;5071172;28;20025;-77
2022/04/05 13:02:59;;;;;;;6.82;5.20;;;;;;;;;;5071033;28;20051;-77
2022/04/05 13:08:11;;;;;;;9.18;4.38;;;;;;;;;;5071031;28;20056;-77
2022/04/05 13:10:46;;;;;;;6.80;4.00;;;;;;;;;;5070872;28;20029;-77
2022/04/05 13:13:25;;;;;;;7.25;4.45;;;;;;;;;;5068277;28;20147;-77
2022/04/05 13:15:51;;;;;;;9.20;4.10;;;;;;;;;;5054440;28;20071;-77
2022/04/05 13:18:18;;;;;;;6.53;4.03;;;;;;;;;;5054581;28;20028;-77
2022/04/05 13:20:57;;;;;;;5.93;3.92;;;;;;;;;;5070091;28;20020;-77
2022/04/05 13:23:26;;;;;;;7.03;4.65;;;;;;;;;;5056139;28;20090;-77
2022/04/05 13:25:52;;;;;;;7.72;4.30;;;;;;;;;;5055911;28;20024;-76
2022/04/05 13:28:18;;;;;;;8.85;4.35;;;;;;;;;;5074292;28;20435;-77
2022/04/05 13:30:46;;;;;;;12.93;4.35;;;;;;;;;;5074185;28;20016;-77
2022/04/05 13:33:13;;;;;;;8.23;4.93;;;;;;;;;;5074255;28;20032;-77
2022/04/05 13:35:39;;;;;;;12.35;5.72;;;;;;;;;;5074003;28;20056;-77
2022/04/05 13:38:05;;;;;;;9.38;5.03;;;;;;;;;;5074162;28;20021;-77
2022/04/05 13:40:33;;;;;;;9.85;5.00;;;;;;;;;;5055805;28;20405;-77
2022/04/05 13:42:59;;;;;;;8.90;5.18;;;;;;;;;;5073963;28;20021;-77
2022/04/05 13:45:26;;;;;;;7.95;4.90;;;;;;;;;;5073868;28;20386;-77
2022/04/05 13:47:52;;;;;;;7.25;4.35;;;;;;;;;;5073923;28;20021;-77
2022/04/05 13:50:20;;;;;;;8.55;5.05;;;;;;;;;;5073812;28;20024;-77
2022/04/05 13:52:46;;;;;;;8.52;4.88;;;;;;;;;;5073820;28;20104;-77
2022/04/05 13:55:12;;;;;;;9.77;5.70;;;;;;;;;;5073722;28;20090;-77
2022/04/05 13:57:39;;;;;;;7.50;5.35;;;;;;;;;;5073494;28;20101;-77
2022/04/05 14:00:06;;;;;;;8.73;5.57;;;;;;;;;;5073762;28;20040;-77
2022/04/05 14:02:32;;;;;;;11.27;6.05;;;;;;;;;;5073604;28;20021;-77
2022/04/05 14:04:58;;;;;;;10.95;5.90;;;;;;;;;;5073562;28;20029;-77
2022/04/05 14:07:25;;;;;;;28.60;13.73;;;;;;;;;;5073513;28;20432;-77
2022/04/05 14:09:51;;;;;;;8.32;5.65;;;;;;;;;;5055410;28;20039;-77
2022/04/05 14:12:17;;;;;;;11.65;5.95;;;;;;;;;;5055525;28;20127;-77
2022/04/05 14:14:43;;;;;;;8.05;6.22;;;;;;;;;;5055103;28;20029;-77
2022/04/05 14:17:10;;;;;;;9.75;6.47;;;;;;;;;;5073365;28;20063;-77
2022/04/05 14:19:36;;;;;;;11.10;6.50;;;;;;;;;;5073288;28;20489;-77
2022/04/05 14:22:02;;;;;;;15.73;5.85;;;;;;;;;;5055193;28;20021;-76
2022/04/05 14:24:28;;;;;;;9.77;6.72;;;;;;;;;;5073315;28;20052;-77
2022/04/05 14:26:54;;;;;;;11.82;6.60;;;;;;;;;;5073032;28;20024;-77
2022/04/05 14:29:21;;;;;;;15.25;7.97;;;;;;;;;;5055087;28;20111;-77
2022/04/05 14:31:47;;;;;;;14.07;8.27;;;;;;;;;;5073015;28;20031;-76
2022/04/05 14:34:13;;;;;;;15.48;7.43;;;;;;;;;;5055009;28;20050;-77
2022/04/05 14:36:40;;;;;;;19.25;9.43;;;;;;;;;;5072975;28;20062;-76